sensor_id;sensor_type;location;lat;lon;timestamp;temperature;humidity
4695;DHT22;2361;49.540;8.390;2024-03-22T00:02:12;12.30;99.90
4695;DHT22;2361;49.540;8.390;2024-03-22T00:04:32;12.20;99.90
4695;DHT22;2361;49.540;8.390;2024-03-22T00:06:53;12.20;99.90
4695;DHT22;2361;49.540;8.390;2024-03-22T00:09:14;12.20;99.90
4695;DHT22;2361;49.540;8.390;2024-03-22T00:11:35;12.20;99.90
4695;DHT22;2361;49.540;8.390;2024-03-22T00:13:56;12.20;99.90
4695;DHT22;2361;49.540;8.390;2024-03-22T00:16:17;12.20;99.90
4695;DHT22;2361;49.540;8.390;2024-03-22T00:18:38;12.20;99.90
4695;DHT22;2361;49.540;8.390;2024-03-22T00:20:58;12.20;99.90
4695;DHT22;2361;49.540;8.390;2024-03-22T00:23:19;12.20;99.90
4695;DHT22;2361;49.540;8.390;2024-03-22T00:25:40;12.20;99.90
4695;DHT22;2361;49.540;8.390;2024-03-22T00:28:01;12.20;99.90
4695;DHT22;2361;49.540;8.390;2024-03-22T00:30:22;12.20;99.90
4695;DHT22;2361;49.540;8.390;2024-03-22T00:32:43;12.20;99.90
4695;DHT22;2361;49.540;8.390;2024-03-22T00:35:06;12.10;99.90
4695;DHT22;2361;49.540;8.390;2024-03-22T00:37:27;11.90;99.90
4695;DHT22;2361;49.540;8.390;2024-03-22T00:39:48;11.80;99.90
4695;DHT22;2361;49.540;8.390;2024-03-22T00:42:09;11.80;99.90
4695;DHT22;2361;49.540;8.390;2024-03-22T00:44:30;11.80;99.90
4695;DHT22;2361;49.540;8.390;2024-03-22T00:46:50;11.70;99.90
4695;DHT22;2361;49.540;8.390;2024-03-22T00:49:11;11.70;99.90
4695;DHT22;2361;49.540;8.390;2024-03-22T00:51:32;11.70;99.90
4695;DHT22;2361;49.540;8.390;2024-03-22T00:53:53;11.60;99.90
4695;DHT22;2361;49.540;8.390;2024-03-22T00:56:13;11.50;99.90
4695;DHT22;2361;49.540;8.390;2024-03-22T00:58:34;11.50;99.90
4695;DHT22;2361;49.540;8.390;2024-03-22T01:00:55;11.40;99.90
4695;DHT22;2361;49.540;8.390;2024-03-22T01:03:16;11.40;99.90
4695;DHT22;2361;49.540;8.390;2024-03-22T01:05:37;11.40;99.90
4695;DHT22;2361;49.540;8.390;2024-03-22T01:07:58;11.30;99.90
4695;DHT22;2361;49.540;8.390;2024-03-22T01:10:18;11.30;99.90
4695;DHT22;2361;49.540;8.390;2024-03-22T01:12:40;11.20;99.90
4695;DHT22;2361;49.540;8.390;2024-03-22T01:15:00;11.20;99.90
4695;DHT22;2361;49.540;8.390;2024-03-22T01:17:21;11.20;99.90
4695;DHT22;2361;49.540;8.390;2024-03-22T01:19:42;11.20;99.90
4695;DHT22;2361;49.540;8.390;2024-03-22T01:22:03;11.20;99.90
4695;DHT22;2361;49.540;8.390;2024-03-22T01:24:23;11.20;99.90
4695;DHT22;2361;49.540;8.390;2024-03-22T01:26:44;11.20;99.90
4695;DHT22;2361;49.540;8.390;2024-03-22T01:29:05;11.20;99.90
4695;DHT22;2361;49.540;8.390;2024-03-22T01:31:26;11.20;99.90
4695;DHT22;2361;49.540;8.390;2024-03-22T01:33:47;11.20;99.90
4695;DHT22;2361;49.540;8.390;2024-03-22T01:36:07;11.20;99.90
4695;DHT22;2361;49.540;8.390;2024-03-22T01:38:28;11.20;99.90
4695;DHT22;2361;49.540;8.390;2024-03-22T01:40:49;11.20;99.90
4695;DHT22;2361;49.540;8.390;2024-03-22T01:43:10;11.10;99.90
4695;DHT22;2361;49.540;8.390;2024-03-22T01:45:32;11.10;99.90
4695;DHT22;2361;49.540;8.390;2024-03-22T01:47:54;11.10;99.90
4695;DHT22;2361;49.540;8.390;2024-03-22T01:50:15;11.10;99.90
4695;DHT22;2361;49.540;8.390;2024-03-22T01:52:36;11.10;99.90
4695;DHT22;2361;49.540;8.390;2024-03-22T01:54:57;11.20;99.90
4695;DHT22;2361;49.540;8.390;2024-03-22T01:57:19;11.20;99.90
4695;DHT22;2361;49.540;8.390;2024-03-22T01:59:40;11.30;99.90
4695;DHT22;2361;49.540;8.390;2024-03-22T02:02:01;11.30;99.90
4695;DHT22;2361;49.540;8.390;2024-03-22T02:04:23;11.30;99.90
4695;DHT22;2361;49.540;8.390;2024-03-22T02:06:44;11.30;99.90
4695;DHT22;2361;49.540;8.390;2024-03-22T02:09:05;11.30;99.90
4695;DHT22;2361;49.540;8.390;2024-03-22T02:11:26;11.40;99.90
4695;DHT22;2361;49.540;8.390;2024-03-22T02:13:47;11.40;99.90
4695;DHT22;2361;49.540;8.390;2024-03-22T02:16:08;11.50;99.90
4695;DHT22;2361;49.540;8.390;2024-03-22T02:18:29;11.50;99.90
4695;DHT22;2361;49.540;8.390;2024-03-22T02:20:50;11.40;99.90
4695;DHT22;2361;49.540;8.390;2024-03-22T02:23:11;11.40;99.90
4695;DHT22;2361;49.540;8.390;2024-03-22T02:25:32;11.40;99.90
4695;DHT22;2361;49.540;8.390;2024-03-22T02:27:52;11.40;99.90
4695;DHT22;2361;49.540;8.390;2024-03-22T02:30:13;11.40;99.90
4695;DHT22;2361;49.540;8.390;2024-03-22T02:32:34;11.40;99.90
4695;DHT22;2361;49.540;8.390;2024-03-22T02:34:55;11.40;99.90
4695;DHT22;2361;49.540;8.390;2024-03-22T02:37:15;11.30;99.90
4695;DHT22;2361;49.540;8.390;2024-03-22T02:39:36;11.30;99.90
4695;DHT22;2361;49.540;8.390;2024-03-22T02:41:57;11.20;99.90
4695;DHT22;2361;49.540;8.390;2024-03-22T02:44:18;11.20;99.90
4695;DHT22;2361;49.540;8.390;2024-03-22T02:46:38;11.20;99.90
4695;DHT22;2361;49.540;8.390;2024-03-22T02:48:59;11.10;99.90
4695;DHT22;2361;49.540;8.390;2024-03-22T02:51:20;11.10;99.90
4695;DHT22;2361;49.540;8.390;2024-03-22T02:53:41;11.00;99.90
4695;DHT22;2361;49.540;8.390;2024-03-22T02:56:02;10.90;99.90
4695;DHT22;2361;49.540;8.390;2024-03-22T02:58:23;10.80;99.90
4695;DHT22;2361;49.540;8.390;2024-03-22T03:00:43;10.70;99.90
4695;DHT22;2361;49.540;8.390;2024-03-22T03:03:05;10.70;99.90
4695;DHT22;2361;49.540;8.390;2024-03-22T03:05:26;10.70;99.90
4695;DHT22;2361;49.540;8.390;2024-03-22T03:07:47;10.70;99.90
4695;DHT22;2361;49.540;8.390;2024-03-22T03:10:07;10.60;99.90
4695;DHT22;2361;49.540;8.390;2024-03-22T03:12:28;10.60;99.90
4695;DHT22;2361;49.540;8.390;2024-03-22T03:14:49;10.60;99.90
4695;DHT22;2361;49.540;8.390;2024-03-22T03:17:10;10.60;99.90
4695;DHT22;2361;49.540;8.390;2024-03-22T03:19:31;10.60;99.90
4695;DHT22;2361;49.540;8.390;2024-03-22T03:21:51;10.60;99.90
4695;DHT22;2361;49.540;8.390;2024-03-22T03:24:12;10.60;99.90
4695;DHT22;2361;49.540;8.390;2024-03-22T03:26:33;10.60;99.90
4695;DHT22;2361;49.540;8.390;2024-03-22T03:28:54;10.60;99.90
4695;DHT22;2361;49.540;8.390;2024-03-22T03:31:16;10.50;99.90
4695;DHT22;2361;49.540;8.390;2024-03-22T03:33:37;10.50;99.90
4695;DHT22;2361;49.540;8.390;2024-03-22T03:35:57;10.50;99.90
4695;DHT22;2361;49.540;8.390;2024-03-22T03:38:18;10.40;99.90
4695;DHT22;2361;49.540;8.390;2024-03-22T03:40:39;10.40;99.90
4695;DHT22;2361;49.540;8.390;2024-03-22T03:43:00;10.40;99.90
4695;DHT22;2361;49.540;8.390;2024-03-22T03:45:20;10.40;99.90
4695;DHT22;2361;49.540;8.390;2024-03-22T03:47:41;10.40;99.90
4695;DHT22;2361;49.540;8.390;2024-03-22T03:50:02;10.50;99.90
4695;DHT22;2361;49.540;8.390;2024-03-22T03:52:23;10.40;99.90
4695;DHT22;2361;49.540;8.390;2024-03-22T03:54:44;10.30;99.90
4695;DHT22;2361;49.540;8.390;2024-03-22T03:57:05;10.30;99.90
4695;DHT22;2361;49.540;8.390;2024-03-22T03:59:25;10.20;99.90
4695;DHT22;2361;49.540;8.390;2024-03-22T04:01:46;10.10;99.90
4695;DHT22;2361;49.540;8.390;2024-03-22T04:04:08;10.10;99.90
4695;DHT22;2361;49.540;8.390;2024-03-22T04:06:29;10.00;99.90
4695;DHT22;2361;49.540;8.390;2024-03-22T04:08:50;10.00;99.90
4695;DHT22;2361;49.540;8.390;2024-03-22T04:11:11;10.00;99.90
4695;DHT22;2361;49.540;8.390;2024-03-22T04:13:32;10.10;99.90
4695;DHT22;2361;49.540;8.390;2024-03-22T04:15:53;10.00;99.90
4695;DHT22;2361;49.540;8.390;2024-03-22T04:18:14;10.00;99.90
4695;DHT22;2361;49.540;8.390;2024-03-22T04:20:35;10.10;99.90
4695;DHT22;2361;49.540;8.390;2024-03-22T04:22:56;10.10;99.90
4695;DHT22;2361;49.540;8.390;2024-03-22T04:25:17;10.00;99.90
4695;DHT22;2361;49.540;8.390;2024-03-22T04:27:37;9.90;99.90
4695;DHT22;2361;49.540;8.390;2024-03-22T04:29:58;9.90;99.90
4695;DHT22;2361;49.540;8.390;2024-03-22T04:32:19;9.90;99.90
4695;DHT22;2361;49.540;8.390;2024-03-22T04:34:43;9.90;99.90
4695;DHT22;2361;49.540;8.390;2024-03-22T04:37:04;9.90;99.90
4695;DHT22;2361;49.540;8.390;2024-03-22T04:39:24;9.90;99.90
4695;DHT22;2361;49.540;8.390;2024-03-22T04:41:45;9.90;99.90
4695;DHT22;2361;49.540;8.390;2024-03-22T04:44:06;9.90;99.90
4695;DHT22;2361;49.540;8.390;2024-03-22T04:46:27;9.90;99.90
4695;DHT22;2361;49.540;8.390;2024-03-22T04:48:48;9.90;99.90
4695;DHT22;2361;49.540;8.390;2024-03-22T04:51:09;9.90;99.90
4695;DHT22;2361;49.540;8.390;2024-03-22T04:53:29;9.90;99.90
4695;DHT22;2361;49.540;8.390;2024-03-22T04:55:50;9.90;99.90
4695;DHT22;2361;49.540;8.390;2024-03-22T04:58:16;9.90;99.90
4695;DHT22;2361;49.540;8.390;2024-03-22T05:00:37;10.00;99.90
4695;DHT22;2361;49.540;8.390;2024-03-22T05:02:58;9.90;99.90
4695;DHT22;2361;49.540;8.390;2024-03-22T05:05:19;9.90;99.90
4695;DHT22;2361;49.540;8.390;2024-03-22T05:07:40;9.90;99.90
4695;DHT22;2361;49.540;8.390;2024-03-22T05:10:01;9.90;99.90
4695;DHT22;2361;49.540;8.390;2024-03-22T05:12:22;9.80;99.90
4695;DHT22;2361;49.540;8.390;2024-03-22T05:14:43;9.80;99.90
4695;DHT22;2361;49.540;8.390;2024-03-22T05:17:03;9.70;99.90
4695;DHT22;2361;49.540;8.390;2024-03-22T05:19:24;9.70;99.90
4695;DHT22;2361;49.540;8.390;2024-03-22T05:21:45;9.70;99.90
4695;DHT22;2361;49.540;8.390;2024-03-22T05:24:06;9.80;99.90
4695;DHT22;2361;49.540;8.390;2024-03-22T05:26:27;9.70;99.90
4695;DHT22;2361;49.540;8.390;2024-03-22T05:28:47;9.70;99.90
4695;DHT22;2361;49.540;8.390;2024-03-22T05:31:08;9.80;99.90
4695;DHT22;2361;49.540;8.390;2024-03-22T05:33:29;9.70;99.90
4695;DHT22;2361;49.540;8.390;2024-03-22T05:35:50;9.70;99.90
4695;DHT22;2361;49.540;8.390;2024-03-22T05:38:11;9.70;99.90
4695;DHT22;2361;49.540;8.390;2024-03-22T05:40:32;9.70;99.90
4695;DHT22;2361;49.540;8.390;2024-03-22T05:42:52;9.70;99.90
4695;DHT22;2361;49.540;8.390;2024-03-22T05:45:13;9.70;99.90
4695;DHT22;2361;49.540;8.390;2024-03-22T05:47:34;9.70;99.90
4695;DHT22;2361;49.540;8.390;2024-03-22T05:49:55;9.70;99.90
4695;DHT22;2361;49.540;8.390;2024-03-22T05:52:16;9.70;99.90
4695;DHT22;2361;49.540;8.390;2024-03-22T05:54:36;9.80;99.90
4695;DHT22;2361;49.540;8.390;2024-03-22T05:56:57;9.80;99.90
4695;DHT22;2361;49.540;8.390;2024-03-22T05:59:18;9.90;99.90
4695;DHT22;2361;49.540;8.390;2024-03-22T06:01:39;10.00;99.90
4695;DHT22;2361;49.540;8.390;2024-03-22T06:04:00;10.10;99.90
4695;DHT22;2361;49.540;8.390;2024-03-22T06:06:20;10.10;99.90
4695;DHT22;2361;49.540;8.390;2024-03-22T06:08:45;10.20;99.90
4695;DHT22;2361;49.540;8.390;2024-03-22T06:11:07;10.20;99.90
4695;DHT22;2361;49.540;8.390;2024-03-22T06:13:28;10.30;99.90
4695;DHT22;2361;49.540;8.390;2024-03-22T06:15:49;10.40;99.90
4695;DHT22;2361;49.540;8.390;2024-03-22T06:18:10;10.40;99.90
4695;DHT22;2361;49.540;8.390;2024-03-22T06:20:31;10.50;99.90
4695;DHT22;2361;49.540;8.390;2024-03-22T06:22:51;10.50;99.90
4695;DHT22;2361;49.540;8.390;2024-03-22T06:25:12;10.70;99.90
4695;DHT22;2361;49.540;8.390;2024-03-22T06:27:33;10.70;99.90
4695;DHT22;2361;49.540;8.390;2024-03-22T06:29:54;10.80;99.90
4695;DHT22;2361;49.540;8.390;2024-03-22T06:32:15;10.90;99.90
4695;DHT22;2361;49.540;8.390;2024-03-22T06:34:35;10.90;99.90
4695;DHT22;2361;49.540;8.390;2024-03-22T06:36:57;11.00;99.90
4695;DHT22;2361;49.540;8.390;2024-03-22T06:39:18;11.00;99.90
4695;DHT22;2361;49.540;8.390;2024-03-22T06:41:39;11.10;99.90
4695;DHT22;2361;49.540;8.390;2024-03-22T06:43:59;11.30;99.90
4695;DHT22;2361;49.540;8.390;2024-03-22T06:46:20;11.50;99.90
4695;DHT22;2361;49.540;8.390;2024-03-22T06:48:41;11.70;99.90
4695;DHT22;2361;49.540;8.390;2024-03-22T06:51:02;11.90;99.90
4695;DHT22;2361;49.540;8.390;2024-03-22T06:53:22;12.20;99.90
4695;DHT22;2361;49.540;8.390;2024-03-22T06:55:43;12.40;99.90
4695;DHT22;2361;49.540;8.390;2024-03-22T06:58:05;12.60;99.90
4695;DHT22;2361;49.540;8.390;2024-03-22T07:00:26;12.80;99.90
4695;DHT22;2361;49.540;8.390;2024-03-22T07:02:47;13.20;99.90
4695;DHT22;2361;49.540;8.390;2024-03-22T07:05:08;13.80;99.90
4695;DHT22;2361;49.540;8.390;2024-03-22T07:07:29;14.20;99.90
4695;DHT22;2361;49.540;8.390;2024-03-22T07:09:50;14.40;99.90
4695;DHT22;2361;49.540;8.390;2024-03-22T07:12:11;14.40;99.90
4695;DHT22;2361;49.540;8.390;2024-03-22T07:14:32;14.30;99.90
4695;DHT22;2361;49.540;8.390;2024-03-22T07:16:52;14.10;99.90
4695;DHT22;2361;49.540;8.390;2024-03-22T07:19:16;13.90;99.90
4695;DHT22;2361;49.540;8.390;2024-03-22T07:21:37;13.80;99.90
4695;DHT22;2361;49.540;8.390;2024-03-22T07:23:59;13.60;99.90
4695;DHT22;2361;49.540;8.390;2024-03-22T07:26:20;13.60;99.90
4695;DHT22;2361;49.540;8.390;2024-03-22T07:28:40;13.40;99.90
4695;DHT22;2361;49.540;8.390;2024-03-22T07:31:01;13.40;99.90
4695;DHT22;2361;49.540;8.390;2024-03-22T07:33:22;13.40;99.90
4695;DHT22;2361;49.540;8.390;2024-03-22T07:35:43;13.50;99.90
4695;DHT22;2361;49.540;8.390;2024-03-22T07:38:04;13.60;99.90
4695;DHT22;2361;49.540;8.390;2024-03-22T07:40:25;13.60;99.90
4695;DHT22;2361;49.540;8.390;2024-03-22T07:42:46;13.80;99.90
4695;DHT22;2361;49.540;8.390;2024-03-22T07:45:07;13.90;99.90
4695;DHT22;2361;49.540;8.390;2024-03-22T07:47:29;14.00;99.90
4695;DHT22;2361;49.540;8.390;2024-03-22T07:49:50;14.00;99.90
4695;DHT22;2361;49.540;8.390;2024-03-22T07:52:11;14.00;99.90
4695;DHT22;2361;49.540;8.390;2024-03-22T07:54:32;14.00;99.90
4695;DHT22;2361;49.540;8.390;2024-03-22T07:56:53;13.90;99.90
4695;DHT22;2361;49.540;8.390;2024-03-22T07:59:15;13.90;99.90
4695;DHT22;2361;49.540;8.390;2024-03-22T08:01:35;13.80;99.90
4695;DHT22;2361;49.540;8.390;2024-03-22T08:03:56;13.80;99.90
4695;DHT22;2361;49.540;8.390;2024-03-22T08:06:17;13.70;99.90
4695;DHT22;2361;49.540;8.390;2024-03-22T08:08:38;13.70;99.90
4695;DHT22;2361;49.540;8.390;2024-03-22T08:10:59;13.70;99.90
4695;DHT22;2361;49.540;8.390;2024-03-22T08:13:20;13.70;99.90
4695;DHT22;2361;49.540;8.390;2024-03-22T08:15:41;13.70;99.90
4695;DHT22;2361;49.540;8.390;2024-03-22T08:18:04;13.70;99.90
4695;DHT22;2361;49.540;8.390;2024-03-22T08:20:25;13.70;99.90
4695;DHT22;2361;49.540;8.390;2024-03-22T08:22:46;13.70;99.90
4695;DHT22;2361;49.540;8.390;2024-03-22T08:25:07;13.70;99.90
4695;DHT22;2361;49.540;8.390;2024-03-22T08:27:28;13.60;99.90
4695;DHT22;2361;49.540;8.390;2024-03-22T08:29:49;13.60;99.90
4695;DHT22;2361;49.540;8.390;2024-03-22T08:32:09;13.60;99.90
4695;DHT22;2361;49.540;8.390;2024-03-22T08:34:31;13.60;99.90
4695;DHT22;2361;49.540;8.390;2024-03-22T08:36:52;13.60;99.90
4695;DHT22;2361;49.540;8.390;2024-03-22T08:39:13;13.60;99.90
4695;DHT22;2361;49.540;8.390;2024-03-22T08:41:39;13.60;99.90
4695;DHT22;2361;49.540;8.390;2024-03-22T08:43:59;13.60;99.90
4695;DHT22;2361;49.540;8.390;2024-03-22T08:46:20;13.60;99.90
4695;DHT22;2361;49.540;8.390;2024-03-22T08:48:42;13.60;99.90
4695;DHT22;2361;49.540;8.390;2024-03-22T08:51:03;13.70;99.90
4695;DHT22;2361;49.540;8.390;2024-03-22T08:53:23;13.70;99.90
4695;DHT22;2361;49.540;8.390;2024-03-22T08:55:48;13.80;99.90
4695;DHT22;2361;49.540;8.390;2024-03-22T08:58:09;13.80;99.90
4695;DHT22;2361;49.540;8.390;2024-03-22T09:00:30;13.80;99.90
4695;DHT22;2361;49.540;8.390;2024-03-22T09:02:51;13.80;99.90
4695;DHT22;2361;49.540;8.390;2024-03-22T09:05:11;13.70;99.90
4695;DHT22;2361;49.540;8.390;2024-03-22T09:07:32;13.70;99.90
4695;DHT22;2361;49.540;8.390;2024-03-22T09:09:53;13.70;99.90
4695;DHT22;2361;49.540;8.390;2024-03-22T09:12:14;13.80;99.90
4695;DHT22;2361;49.540;8.390;2024-03-22T09:14:34;13.80;99.90
4695;DHT22;2361;49.540;8.390;2024-03-22T09:16:55;13.90;99.90
4695;DHT22;2361;49.540;8.390;2024-03-22T09:19:16;13.90;99.90
4695;DHT22;2361;49.540;8.390;2024-03-22T09:21:37;14.00;99.90
4695;DHT22;2361;49.540;8.390;2024-03-22T09:23:58;14.20;99.90
4695;DHT22;2361;49.540;8.390;2024-03-22T09:26:18;14.30;99.90
4695;DHT22;2361;49.540;8.390;2024-03-22T09:28:41;14.40;99.90
4695;DHT22;2361;49.540;8.390;2024-03-22T09:31:09;14.50;99.90
4695;DHT22;2361;49.540;8.390;2024-03-22T09:33:29;14.60;99.90
4695;DHT22;2361;49.540;8.390;2024-03-22T09:35:50;14.70;99.90
4695;DHT22;2361;49.540;8.390;2024-03-22T09:38:11;14.80;99.90
4695;DHT22;2361;49.540;8.390;2024-03-22T09:40:32;15.00;99.90
4695;DHT22;2361;49.540;8.390;2024-03-22T09:42:53;15.30;99.90
4695;DHT22;2361;49.540;8.390;2024-03-22T09:45:15;15.60;99.90
4695;DHT22;2361;49.540;8.390;2024-03-22T09:47:39;15.90;99.90
4695;DHT22;2361;49.540;8.390;2024-03-22T09:50:01;16.10;99.90
4695;DHT22;2361;49.540;8.390;2024-03-22T09:52:23;16.40;99.90
4695;DHT22;2361;49.540;8.390;2024-03-22T09:54:44;16.70;99.90
4695;DHT22;2361;49.540;8.390;2024-03-22T09:57:11;17.00;99.90
4695;DHT22;2361;49.540;8.390;2024-03-22T09:59:33;17.30;99.90
4695;DHT22;2361;49.540;8.390;2024-03-22T10:01:54;17.70;99.90
4695;DHT22;2361;49.540;8.390;2024-03-22T10:04:16;17.90;99.90
4695;DHT22;2361;49.540;8.390;2024-03-22T10:06:36;17.90;99.90
4695;DHT22;2361;49.540;8.390;2024-03-22T10:09:01;17.90;99.90
4695;DHT22;2361;49.540;8.390;2024-03-22T10:11:22;17.90;99.90
4695;DHT22;2361;49.540;8.390;2024-03-22T10:13:43;17.80;99.90
4695;DHT22;2361;49.540;8.390;2024-03-22T10:16:05;17.70;99.90
4695;DHT22;2361;49.540;8.390;2024-03-22T10:18:26;17.60;99.90
4695;DHT22;2361;49.540;8.390;2024-03-22T10:20:47;17.50;99.90
4695;DHT22;2361;49.540;8.390;2024-03-22T10:23:08;17.50;99.90
4695;DHT22;2361;49.540;8.390;2024-03-22T10:25:29;17.40;99.90
4695;DHT22;2361;49.540;8.390;2024-03-22T10:27:50;17.30;99.90
4695;DHT22;2361;49.540;8.390;2024-03-22T10:30:12;17.30;99.90
4695;DHT22;2361;49.540;8.390;2024-03-22T10:32:36;17.30;99.90
4695;DHT22;2361;49.540;8.390;2024-03-22T10:34:57;17.40;99.90
4695;DHT22;2361;49.540;8.390;2024-03-22T10:37:18;17.40;99.90
4695;DHT22;2361;49.540;8.390;2024-03-22T10:39:40;17.50;99.90
4695;DHT22;2361;49.540;8.390;2024-03-22T10:42:01;17.60;99.90
4695;DHT22;2361;49.540;8.390;2024-03-22T10:44:22;17.70;99.90
4695;DHT22;2361;49.540;8.390;2024-03-22T10:46:45;17.80;99.90
4695;DHT22;2361;49.540;8.390;2024-03-22T10:49:06;17.90;99.90
4695;DHT22;2361;49.540;8.390;2024-03-22T10:51:27;17.90;99.90
4695;DHT22;2361;49.540;8.390;2024-03-22T10:53:48;18.00;99.90
4695;DHT22;2361;49.540;8.390;2024-03-22T10:56:11;18.10;99.90
4695;DHT22;2361;49.540;8.390;2024-03-22T10:58:32;18.20;99.90
4695;DHT22;2361;49.540;8.390;2024-03-22T11:00:54;18.20;99.90
4695;DHT22;2361;49.540;8.390;2024-03-22T11:03:15;18.30;99.90
4695;DHT22;2361;49.540;8.390;2024-03-22T11:05:49;18.30;99.90
4695;DHT22;2361;49.540;8.390;2024-03-22T11:08:11;18.30;99.90
4695;DHT22;2361;49.540;8.390;2024-03-22T11:10:35;18.30;99.90
4695;DHT22;2361;49.540;8.390;2024-03-22T11:13:00;18.40;99.90
4695;DHT22;2361;49.540;8.390;2024-03-22T11:15:22;18.30;99.90
4695;DHT22;2361;49.540;8.390;2024-03-22T11:17:43;18.40;99.90
4695;DHT22;2361;49.540;8.390;2024-03-22T11:20:04;18.50;99.90
4695;DHT22;2361;49.540;8.390;2024-03-22T11:22:26;18.60;99.90
4695;DHT22;2361;49.540;8.390;2024-03-22T11:24:47;18.70;99.90
4695;DHT22;2361;49.540;8.390;2024-03-22T11:27:09;18.70;99.90
4695;DHT22;2361;49.540;8.390;2024-03-22T11:29:31;18.70;99.90
4695;DHT22;2361;49.540;8.390;2024-03-22T11:31:52;18.80;99.90
4695;DHT22;2361;49.540;8.390;2024-03-22T11:34:13;18.90;99.90
4695;DHT22;2361;49.540;8.390;2024-03-22T11:36:35;18.90;99.90
4695;DHT22;2361;49.540;8.390;2024-03-22T11:38:56;19.00;99.90
4695;DHT22;2361;49.540;8.390;2024-03-22T11:41:18;19.20;99.90
4695;DHT22;2361;49.540;8.390;2024-03-22T11:43:41;19.50;99.90
4695;DHT22;2361;49.540;8.390;2024-03-22T11:46:02;19.70;99.90
4695;DHT22;2361;49.540;8.390;2024-03-22T11:48:22;19.90;99.90
4695;DHT22;2361;49.540;8.390;2024-03-22T11:50:43;20.00;99.90
4695;DHT22;2361;49.540;8.390;2024-03-22T11:53:06;20.00;99.90
4695;DHT22;2361;49.540;8.390;2024-03-22T11:55:27;20.00;99.90
4695;DHT22;2361;49.540;8.390;2024-03-22T11:57:49;20.10;99.90
4695;DHT22;2361;49.540;8.390;2024-03-22T12:00:10;20.20;99.90
4695;DHT22;2361;49.540;8.390;2024-03-22T12:02:33;20.40;99.90
4695;DHT22;2361;49.540;8.390;2024-03-22T12:04:54;20.40;99.90
4695;DHT22;2361;49.540;8.390;2024-03-22T12:07:17;20.40;99.90
4695;DHT22;2361;49.540;8.390;2024-03-22T12:09:38;20.50;99.90
4695;DHT22;2361;49.540;8.390;2024-03-22T12:11:58;20.40;99.70
4695;DHT22;2361;49.540;8.390;2024-03-22T12:14:19;20.40;99.70
4695;DHT22;2361;49.540;8.390;2024-03-22T12:16:40;20.30;99.50
4695;DHT22;2361;49.540;8.390;2024-03-22T12:19:01;20.00;99.80
4695;DHT22;2361;49.540;8.390;2024-03-22T12:21:22;19.90;99.90
4695;DHT22;2361;49.540;8.390;2024-03-22T12:23:43;19.90;99.90
4695;DHT22;2361;49.540;8.390;2024-03-22T12:26:04;19.90;99.90
4695;DHT22;2361;49.540;8.390;2024-03-22T12:28:25;20.00;99.90
4695;DHT22;2361;49.540;8.390;2024-03-22T12:30:46;20.10;99.80
4695;DHT22;2361;49.540;8.390;2024-03-22T12:33:07;20.20;99.30
4695;DHT22;2361;49.540;8.390;2024-03-22T12:35:30;20.20;99.30
4695;DHT22;2361;49.540;8.390;2024-03-22T12:37:53;20.10;99.20
4695;DHT22;2361;49.540;8.390;2024-03-22T12:40:14;20.20;99.10
4695;DHT22;2361;49.540;8.390;2024-03-22T12:42:35;20.20;98.90
4695;DHT22;2361;49.540;8.390;2024-03-22T12:44:56;20.20;98.90
4695;DHT22;2361;49.540;8.390;2024-03-22T12:47:17;20.20;98.70
4695;DHT22;2361;49.540;8.390;2024-03-22T12:49:37;20.20;98.70
4695;DHT22;2361;49.540;8.390;2024-03-22T12:51:58;20.20;98.50
4695;DHT22;2361;49.540;8.390;2024-03-22T12:54:19;20.10;98.70
4695;DHT22;2361;49.540;8.390;2024-03-22T12:56:41;20.00;98.30
4695;DHT22;2361;49.540;8.390;2024-03-22T12:59:01;19.80;98.60
4695;DHT22;2361;49.540;8.390;2024-03-22T13:01:22;19.80;98.80
4695;DHT22;2361;49.540;8.390;2024-03-22T13:03:43;19.90;99.00
4695;DHT22;2361;49.540;8.390;2024-03-22T13:06:04;19.90;98.80
4695;DHT22;2361;49.540;8.390;2024-03-22T13:08:25;19.80;98.70
4695;DHT22;2361;49.540;8.390;2024-03-22T13:10:46;19.80;98.90
4695;DHT22;2361;49.540;8.390;2024-03-22T13:13:09;19.60;99.00
4695;DHT22;2361;49.540;8.390;2024-03-22T13:15:29;19.50;99.40
4695;DHT22;2361;49.540;8.390;2024-03-22T13:17:52;19.60;99.40
4695;DHT22;2361;49.540;8.390;2024-03-22T13:20:15;19.60;99.30
4695;DHT22;2361;49.540;8.390;2024-03-22T13:22:38;19.60;99.30
4695;DHT22;2361;49.540;8.390;2024-03-22T13:24:59;19.50;99.30
4695;DHT22;2361;49.540;8.390;2024-03-22T13:27:20;19.50;99.40
4695;DHT22;2361;49.540;8.390;2024-03-22T13:29:43;19.50;99.20
4695;DHT22;2361;49.540;8.390;2024-03-22T13:32:04;19.60;99.20
4695;DHT22;2361;49.540;8.390;2024-03-22T13:34:27;19.60;99.60
4695;DHT22;2361;49.540;8.390;2024-03-22T13:36:49;19.60;99.20
4695;DHT22;2361;49.540;8.390;2024-03-22T13:39:09;19.70;99.10
4695;DHT22;2361;49.540;8.390;2024-03-22T13:41:31;19.60;99.30
4695;DHT22;2361;49.540;8.390;2024-03-22T13:43:51;19.60;99.80
4695;DHT22;2361;49.540;8.390;2024-03-22T13:46:12;19.60;99.50
4695;DHT22;2361;49.540;8.390;2024-03-22T13:48:35;19.60;99.40
4695;DHT22;2361;49.540;8.390;2024-03-22T13:50:57;19.60;99.50
4695;DHT22;2361;49.540;8.390;2024-03-22T13:53:18;19.70;99.40
4695;DHT22;2361;49.540;8.390;2024-03-22T13:55:39;19.80;99.20
4695;DHT22;2361;49.540;8.390;2024-03-22T13:58:00;19.90;99.50
4695;DHT22;2361;49.540;8.390;2024-03-22T14:00:20;19.90;99.30
4695;DHT22;2361;49.540;8.390;2024-03-22T14:02:42;19.90;99.00
4695;DHT22;2361;49.540;8.390;2024-03-22T14:05:05;20.00;99.00
4695;DHT22;2361;49.540;8.390;2024-03-22T14:07:26;19.90;98.80
4695;DHT22;2361;49.540;8.390;2024-03-22T14:09:47;20.00;98.90
4695;DHT22;2361;49.540;8.390;2024-03-22T14:12:08;20.00;98.90
4695;DHT22;2361;49.540;8.390;2024-03-22T14:14:29;19.90;99.00
4695;DHT22;2361;49.540;8.390;2024-03-22T14:16:51;19.90;99.30
4695;DHT22;2361;49.540;8.390;2024-03-22T14:19:12;19.90;99.30
4695;DHT22;2361;49.540;8.390;2024-03-22T14:21:33;19.90;99.10
4695;DHT22;2361;49.540;8.390;2024-03-22T14:23:54;19.90;99.10
4695;DHT22;2361;49.540;8.390;2024-03-22T14:26:18;19.90;99.00
4695;DHT22;2361;49.540;8.390;2024-03-22T14:28:40;19.90;99.10
4695;DHT22;2361;49.540;8.390;2024-03-22T14:31:00;19.90;99.30
4695;DHT22;2361;49.540;8.390;2024-03-22T14:33:21;19.90;99.30
4695;DHT22;2361;49.540;8.390;2024-03-22T14:35:42;19.90;99.50
4695;DHT22;2361;49.540;8.390;2024-03-22T14:38:03;19.90;99.50
4695;DHT22;2361;49.540;8.390;2024-03-22T14:40:24;19.80;99.80
4695;DHT22;2361;49.540;8.390;2024-03-22T14:42:45;19.60;99.80
4695;DHT22;2361;49.540;8.390;2024-03-22T14:45:06;19.60;99.90
4695;DHT22;2361;49.540;8.390;2024-03-22T14:47:28;19.50;99.90
4695;DHT22;2361;49.540;8.390;2024-03-22T14:49:49;19.40;99.90
4695;DHT22;2361;49.540;8.390;2024-03-22T14:52:12;19.40;99.90
4695;DHT22;2361;49.540;8.390;2024-03-22T14:54:32;19.40;99.90
4695;DHT22;2361;49.540;8.390;2024-03-22T14:56:53;19.40;99.90
4695;DHT22;2361;49.540;8.390;2024-03-22T14:59:14;19.40;99.90
4695;DHT22;2361;49.540;8.390;2024-03-22T15:01:35;19.40;99.90
4695;DHT22;2361;49.540;8.390;2024-03-22T15:03:56;19.40;99.90
4695;DHT22;2361;49.540;8.390;2024-03-22T15:06:16;19.40;99.90
4695;DHT22;2361;49.540;8.390;2024-03-22T15:08:37;19.40;99.90
4695;DHT22;2361;49.540;8.390;2024-03-22T15:10:58;19.30;99.90
4695;DHT22;2361;49.540;8.390;2024-03-22T15:13:19;19.40;99.90
4695;DHT22;2361;49.540;8.390;2024-03-22T15:15:40;19.30;99.90
4695;DHT22;2361;49.540;8.390;2024-03-22T15:18:01;19.40;99.90
4695;DHT22;2361;49.540;8.390;2024-03-22T15:20:22;19.30;99.90
4695;DHT22;2361;49.540;8.390;2024-03-22T15:22:43;19.30;99.90